Seattle, Washington
Traffic Map
Current Weather Conditions
Seattle, Washington
Overcast
Overcast

Feels Like: 4°
Wind Chill: Ceiling: 7500
Heat Index: Visibility: 10mi
Dew Point: Wind: 5mph
Humidity: 89% Direction: 140° (SE)
Pressure: 30.09in Gusts: 0mph
Raw Report DataKBFI 231453Z 14004KT 10SM FEW040 BKN075 OVC200 06/04 A3009 RMK AO2 SLP190 T00560039 51004
Traffic Incident Summary
Active as of:
Severity:
Category:
InformationThere was an issue retrieving the traffic information for this location. Please try a different location or try again shortly.
Advertisements
Track Severe Weather on mobile